createdAt,value
2019-05-22T00:00:11.573Z,12.13
2019-05-22T00:01:11.782Z,12.18
2019-05-22T00:02:11.563Z,12.12
2019-05-22T00:03:11.770Z,12.15
2019-05-22T00:04:11.555Z,12.15
2019-05-22T00:05:11.566Z,12.15
2019-05-22T00:06:11.571Z,12.15
2019-05-22T00:07:11.554Z,12.15
2019-05-22T00:08:11.542Z,12.10
2019-05-22T00:09:11.733Z,12.22
2019-05-22T00:10:11.745Z,12.17
2019-05-22T00:11:11.540Z,12.22
2019-05-22T00:12:11.524Z,12.21
2019-05-22T00:13:11.517Z,12.17
2019-05-22T00:14:11.531Z,12.17
2019-05-22T00:15:11.512Z,12.17
2019-05-22T00:16:11.509Z,12.20
2019-05-22T00:17:11.510Z,12.22
2019-05-22T00:18:11.514Z,12.10
2019-05-22T00:19:11.497Z,12.13
2019-05-22T00:20:11.491Z,12.07
2019-05-22T00:21:11.495Z,12.07
2019-05-22T00:22:11.500Z,12.12
2019-05-22T00:23:11.518Z,12.06
2019-05-22T00:24:11.487Z,12.13
2019-05-22T00:25:11.485Z,12.07
2019-05-22T00:26:11.466Z,12.10
2019-05-22T00:27:11.483Z,12.12
2019-05-22T00:28:11.478Z,12.10
2019-05-22T00:29:11.498Z,12.18
2019-05-22T00:30:11.455Z,12.18
2019-05-22T00:31:11.446Z,12.13
2019-05-22T00:32:11.464Z,11.95
2019-05-22T00:33:11.468Z,11.94
2019-05-22T00:34:11.674Z,12.09
2019-05-22T00:35:11.645Z,12.06
2019-05-22T00:36:11.437Z,12.09
2019-05-22T00:37:11.443Z,12.13
2019-05-22T00:38:11.465Z,12.09
2019-05-22T00:39:11.417Z,12.06
2019-05-22T00:40:11.888Z,12.20
2019-05-22T00:41:11.456Z,12.12
2019-05-22T00:42:11.404Z,12.07
2019-05-22T00:43:14.171Z,12.02
2019-05-22T00:44:11.393Z,11.99
2019-05-22T00:45:11.390Z,11.94
2019-05-22T00:46:11.410Z,11.99
2019-05-22T00:47:11.403Z,12.00
2019-05-22T00:48:11.581Z,12.07
2019-05-22T00:49:11.575Z,12.00
2019-05-22T00:50:11.370Z,12.04
2019-05-22T00:51:11.365Z,12.06
2019-05-22T00:52:11.359Z,11.91
2019-05-22T00:53:11.360Z,11.95
2019-05-22T00:54:11.571Z,11.97
2019-05-22T00:55:11.350Z,11.97
2019-05-22T00:56:11.366Z,11.97
2019-05-22T00:57:11.358Z,12.00
2019-05-22T00:58:11.548Z,12.09
2019-05-22T00:59:11.341Z,12.03
2019-05-22T01:00:11.548Z,12.06
2019-05-22T01:01:11.342Z,12.18
2019-05-22T01:02:11.331Z,12.17
2019-05-22T01:03:11.335Z,12.07
2019-05-22T01:04:11.329Z,12.18
2019-05-22T01:05:11.330Z,12.09
2019-05-22T01:06:11.327Z,12.06
2019-05-22T01:07:11.313Z,12.00
2019-05-22T01:08:11.303Z,12.04
2019-05-22T01:09:11.294Z,11.94
2019-05-22T01:10:11.755Z,11.95
2019-05-22T01:11:11.282Z,12.02
2019-05-22T01:12:11.382Z,12.02
2019-05-22T01:13:11.430Z,12.04
2019-05-22T01:14:11.283Z,12.03
2019-05-22T01:15:11.264Z,12.07
2019-05-22T01:16:11.261Z,12.04
2019-05-22T01:17:11.343Z,12.07
2019-05-22T01:18:11.424Z,11.97
2019-05-22T01:19:11.298Z,12.04
2019-05-22T01:20:11.287Z,11.95
2019-05-22T01:21:11.470Z,12.09
2019-05-22T01:22:11.236Z,12.10
2019-05-22T01:23:11.465Z,11.88
2019-05-22T01:24:11.435Z,11.94
2019-05-22T01:25:11.461Z,11.84
2019-05-22T01:26:11.450Z,11.95
2019-05-22T01:27:11.429Z,12.04
2019-05-22T01:28:11.224Z,12.03
2019-05-22T01:29:11.220Z,12.03
2019-05-22T01:30:11.218Z,11.99
2019-05-22T01:31:11.209Z,11.99
2019-05-22T01:32:11.195Z,11.94
2019-05-22T01:33:11.408Z,12.00
2019-05-22T01:34:11.186Z,11.94
2019-05-22T01:35:11.186Z,11.95
2019-05-22T01:36:11.205Z,11.97
2019-05-22T01:37:11.193Z,11.86
2019-05-22T01:38:11.190Z,11.86
2019-05-22T01:39:11.163Z,11.90
2019-05-22T01:40:11.158Z,11.94
2019-05-22T01:41:11.362Z,11.94
2019-05-22T01:42:11.170Z,11.95
2019-05-22T01:43:11.179Z,11.97
2019-05-22T01:44:11.148Z,11.87
2019-05-22T01:45:11.163Z,11.91
2019-05-22T01:46:11.144Z,11.90
2019-05-22T01:47:11.142Z,11.90
2019-05-22T01:48:11.145Z,11.90
2019-05-22T01:49:11.134Z,11.86
2019-05-22T01:50:11.123Z,11.91
2019-05-22T01:51:11.129Z,11.90
2019-05-22T01:52:11.113Z,11.84
2019-05-22T01:53:11.174Z,11.90
2019-05-22T01:54:11.111Z,12.02
2019-05-22T01:55:11.232Z,11.91
2019-05-22T01:56:11.104Z,11.91
2019-05-22T01:57:11.090Z,11.91
2019-05-22T01:58:11.105Z,11.90
2019-05-22T01:59:11.298Z,11.91
2019-05-22T02:00:11.279Z,11.86
2019-05-22T02:01:11.098Z,11.80
2019-05-22T02:02:11.082Z,11.86
2019-05-22T02:03:11.287Z,11.80
2019-05-22T02:04:14.663Z,11.86
2019-05-22T02:05:11.063Z,11.88
2019-05-22T02:06:11.068Z,11.80
2019-05-22T02:07:11.050Z,11.87
2019-05-22T02:08:11.039Z,11.83
2019-05-22T02:09:11.039Z,11.75
2019-05-22T02:10:11.061Z,11.75
2019-05-22T02:11:11.234Z,11.77
2019-05-22T02:12:11.054Z,11.73
2019-05-22T02:13:11.026Z,11.83
2019-05-22T02:14:11.226Z,11.86
2019-05-22T02:15:11.020Z,11.73
2019-05-22T02:16:11.018Z,11.84
2019-05-22T02:17:11.017Z,11.81
2019-05-22T02:18:11.004Z,11.80
2019-05-22T02:19:10.991Z,11.78
2019-05-22T02:20:11.197Z,11.80
2019-05-22T02:21:10.987Z,11.80
2019-05-22T02:22:10.981Z,11.83
2019-05-22T02:23:11.204Z,11.86
2019-05-22T02:24:10.981Z,11.78
2019-05-22T02:25:11.210Z,11.75
2019-05-22T02:26:10.975Z,11.81
2019-05-22T02:27:10.967Z,11.81
2019-05-22T02:28:11.155Z,11.73
2019-05-22T02:29:11.165Z,11.68
2019-05-22T02:30:11.163Z,11.68
2019-05-22T02:31:10.958Z,11.65
2019-05-22T02:32:10.940Z,11.72
2019-05-22T02:33:10.971Z,11.60
2019-05-22T02:34:10.953Z,11.59
2019-05-22T02:35:11.152Z,11.68
2019-05-22T02:36:10.926Z,11.70
2019-05-22T02:37:10.923Z,11.75
2019-05-22T02:38:10.918Z,11.60
2019-05-22T02:39:10.929Z,11.60
2019-05-22T02:40:11.122Z,11.59
2019-05-22T02:41:14.281Z,11.66
2019-05-22T02:42:10.903Z,11.60
2019-05-22T02:43:10.895Z,11.57
2019-05-22T02:44:10.910Z,11.62
2019-05-22T02:45:10.901Z,11.62
2019-05-22T02:46:10.924Z,11.69
2019-05-22T02:47:19.129Z,11.63
2019-05-22T02:48:10.881Z,11.63
2019-05-22T02:49:10.878Z,11.54
2019-05-22T02:50:10.879Z,11.54
2019-05-22T02:51:10.881Z,11.55
2019-05-22T02:52:10.857Z,11.59
2019-05-22T02:53:10.861Z,11.55
2019-05-22T02:54:11.066Z,11.51
2019-05-22T02:55:10.844Z,11.51
2019-05-22T02:56:10.864Z,11.51
2019-05-22T02:57:10.844Z,11.47
2019-05-22T02:58:10.837Z,11.47
2019-05-22T02:59:10.822Z,11.36
2019-05-22T03:00:10.829Z,11.32
2019-05-22T03:01:10.819Z,11.32
2019-05-22T03:02:10.819Z,11.35
2019-05-22T03:03:10.803Z,11.36
2019-05-22T03:04:10.797Z,11.36
2019-05-22T03:05:10.791Z,11.35
2019-05-22T03:06:10.829Z,11.40
2019-05-22T03:07:10.787Z,11.41
2019-05-22T03:08:10.998Z,11.41
2019-05-22T03:09:10.782Z,11.36
2019-05-22T03:11:10.762Z,11.36
2019-05-22T03:12:10.787Z,11.35
2019-05-22T03:13:10.785Z,11.27
2019-05-22T03:14:10.766Z,11.41
2019-05-22T03:15:10.773Z,11.44
2019-05-22T03:16:10.747Z,11.32
2019-05-22T03:17:10.748Z,11.33
2019-05-22T03:18:10.750Z,11.30
2019-05-22T03:19:10.744Z,11.36
2019-05-22T03:20:10.722Z,11.30
2019-05-22T03:21:10.736Z,11.35
2019-05-22T03:22:10.723Z,11.33
2019-05-22T03:23:10.724Z,11.32
2019-05-22T03:24:10.721Z,11.30
2019-05-22T03:25:10.913Z,11.35
2019-05-22T03:26:10.836Z,11.36
2019-05-22T03:27:10.703Z,11.30
2019-05-22T03:28:10.896Z,11.26
2019-05-22T03:29:10.901Z,11.30
2019-05-22T03:30:10.687Z,11.30
2019-05-22T03:31:10.686Z,11.17
2019-05-22T03:32:10.684Z,11.15
2019-05-22T03:33:10.890Z,11.14
2019-05-22T03:34:10.666Z,10.99
2019-05-22T03:35:10.675Z,10.93
2019-05-22T03:36:10.680Z,11.00
2019-05-22T03:37:10.669Z,10.96
2019-05-22T03:38:10.650Z,11.07
2019-05-22T03:39:10.644Z,10.96
2019-05-22T03:40:10.637Z,10.92
2019-05-22T03:41:10.630Z,10.94
2019-05-22T03:42:10.651Z,10.94
2019-05-22T03:43:10.841Z,11.02
2019-05-22T03:44:10.701Z,10.94
2019-05-22T03:45:10.617Z,10.93
2019-05-22T03:46:10.626Z,10.94
2019-05-22T03:47:10.610Z,10.89
2019-05-22T03:48:10.600Z,10.96
2019-05-22T03:49:28.300Z,10.92
2019-05-22T03:50:10.599Z,10.99
2019-05-22T03:51:10.805Z,11.08
2019-05-22T03:52:10.591Z,10.94
2019-05-22T03:53:10.783Z,10.92
2019-05-22T03:54:10.581Z,10.94
2019-05-22T03:55:10.580Z,10.99
2019-05-22T03:56:10.576Z,10.96
2019-05-22T03:57:10.560Z,10.94
2019-05-22T03:58:10.555Z,10.90
2019-05-22T03:59:10.550Z,11.08
2019-05-22T04:00:10.551Z,10.97
2019-05-22T04:01:10.572Z,10.96
2019-05-22T04:02:10.553Z,10.97
2019-05-22T04:03:10.531Z,10.96
2019-05-22T04:04:10.735Z,10.93
2019-05-22T04:05:10.536Z,10.93
2019-05-22T04:06:10.724Z,10.97
2019-05-22T04:07:10.517Z,11.04
2019-05-22T04:08:10.520Z,11.10
2019-05-22T04:09:10.514Z,11.05
2019-05-22T04:10:10.712Z,11.05
2019-05-22T04:11:10.523Z,11.08
2019-05-22T04:12:10.544Z,11.08
2019-05-22T04:13:10.521Z,11.05
2019-05-22T04:14:10.482Z,11.04
2019-05-22T04:15:10.484Z,11.08
2019-05-22T04:16:10.478Z,11.02
2019-05-22T04:17:10.476Z,11.18
2019-05-22T04:18:10.484Z,11.11
2019-05-22T04:19:10.463Z,11.08
2019-05-22T04:20:10.459Z,11.17
2019-05-22T04:21:10.446Z,11.14
2019-05-22T04:22:10.439Z,11.15
2019-05-22T04:23:10.445Z,11.15
2019-05-22T04:24:10.433Z,11.17
2019-05-22T04:25:10.632Z,11.19
2019-05-22T04:26:10.431Z,11.17
2019-05-22T04:27:10.429Z,11.14
2019-05-22T04:28:10.423Z,11.15
2019-05-22T04:29:10.428Z,11.15
2019-05-22T04:30:10.413Z,11.22
2019-05-22T04:31:10.410Z,11.17
2019-05-22T04:32:10.407Z,11.15
2019-05-22T04:33:10.395Z,11.17
2019-05-22T04:34:10.397Z,11.22
2019-05-22T04:35:10.389Z,11.27
2019-05-22T04:36:10.635Z,11.22
2019-05-22T04:37:10.386Z,11.25
2019-05-22T04:38:10.397Z,11.23
2019-05-22T04:39:10.369Z,11.12
2019-05-22T04:40:10.576Z,11.18
2019-05-22T04:41:10.373Z,11.18
2019-05-22T04:42:10.350Z,11.15
2019-05-22T04:43:10.369Z,11.12
2019-05-22T04:44:10.343Z,11.12
2019-05-22T04:45:10.357Z,11.30
2019-05-22T04:46:10.354Z,11.14
2019-05-22T04:47:10.332Z,11.22
2019-05-22T04:48:10.337Z,11.22
2019-05-22T04:49:10.344Z,11.15
2019-05-22T04:50:10.322Z,11.19
2019-05-22T04:51:10.317Z,11.15
2019-05-22T04:52:10.307Z,11.18
2019-05-22T04:53:10.303Z,11.15
2019-05-22T04:54:10.298Z,11.14
2019-05-22T04:55:10.309Z,11.15
2019-05-22T04:56:10.319Z,11.18
2019-05-22T04:57:10.284Z,11.07
2019-05-22T04:58:10.513Z,11.10
2019-05-22T04:59:10.298Z,11.12
2019-05-22T05:00:10.280Z,11.08
2019-05-22T05:01:10.489Z,11.15
2019-05-22T05:02:10.271Z,11.07
2019-05-22T05:03:10.306Z,11.04
2019-05-22T05:04:10.751Z,11.12
2019-05-22T05:05:10.275Z,11.05
2019-05-22T05:06:10.464Z,11.15
2019-05-22T05:07:10.236Z,11.14
2019-05-22T05:08:10.237Z,11.10
2019-05-22T05:09:10.456Z,11.10
2019-05-22T05:10:10.227Z,11.12
2019-05-22T05:11:10.221Z,11.05
2019-05-22T05:12:10.247Z,11.08
2019-05-22T05:13:10.222Z,11.00
2019-05-22T05:14:10.220Z,11.10
2019-05-22T05:15:10.214Z,11.00
2019-05-22T05:16:10.215Z,10.89
2019-05-22T05:17:10.195Z,11.10
2019-05-22T05:18:10.189Z,11.07
2019-05-22T05:19:10.203Z,11.00
2019-05-22T05:20:21.622Z,10.99
2019-05-22T05:21:10.184Z,10.97
2019-05-22T05:22:10.179Z,10.93
2019-05-22T05:23:10.381Z,10.94
2019-05-22T05:24:10.174Z,10.92
2019-05-22T05:25:10.176Z,10.92
2019-05-22T05:26:10.174Z,10.97
2019-05-22T05:27:10.366Z,10.93
2019-05-22T05:28:10.159Z,10.93
2019-05-22T05:29:10.373Z,10.96
2019-05-22T05:30:10.137Z,10.94
2019-05-22T05:31:10.148Z,10.93
2019-05-22T05:32:10.139Z,10.87
2019-05-22T05:33:10.345Z,10.97
2019-05-22T05:34:10.349Z,10.93
2019-05-22T05:35:10.127Z,11.05
2019-05-22T05:36:10.320Z,10.99
2019-05-22T05:37:10.119Z,11.07
2019-05-22T05:38:10.101Z,10.94
2019-05-22T05:39:10.113Z,10.97
2019-05-22T05:40:10.104Z,11.00
2019-05-22T05:41:10.308Z,11.00
2019-05-22T05:42:10.091Z,11.04
2019-05-22T05:43:10.094Z,11.08
2019-05-22T05:44:10.074Z,11.11
2019-05-22T05:45:13.238Z,11.08
2019-05-22T05:46:10.093Z,11.04
2019-05-22T05:47:10.069Z,11.08
2019-05-22T05:48:10.066Z,11.07
2019-05-22T05:49:10.068Z,10.97
2019-05-22T05:50:10.076Z,11.08
2019-05-22T05:51:10.041Z,10.97
2019-05-22T05:52:10.041Z,11.10
2019-05-22T05:53:10.035Z,11.02
2019-05-22T05:54:10.228Z,11.04
2019-05-22T05:55:10.229Z,11.04
2019-05-22T05:56:10.023Z,10.93
2019-05-22T05:57:10.018Z,10.96
2019-05-22T05:58:10.226Z,10.99
2019-05-22T05:59:10.015Z,11.14
2019-05-22T06:00:10.213Z,11.07
2019-05-22T06:01:10.036Z,11.05
2019-05-22T06:02:10.007Z,11.00
2019-05-22T06:03:10.197Z,11.04
2019-05-22T06:05:09.998Z,11.04
2019-05-22T06:06:09.988Z,11.11
2019-05-22T06:07:09.993Z,11.05
2019-05-22T06:08:09.964Z,11.07
2019-05-22T06:09:09.963Z,11.12
2019-05-22T06:10:09.973Z,11.12
2019-05-22T06:11:09.968Z,11.15
2019-05-22T06:12:09.946Z,11.15
2019-05-22T06:13:09.981Z,11.19
2019-05-22T06:14:09.950Z,11.11
2019-05-22T06:15:09.936Z,11.15
2019-05-22T06:16:09.939Z,11.15
2019-05-22T06:17:09.939Z,11.15
2019-05-22T06:18:09.937Z,11.15
2019-05-22T06:19:09.918Z,11.12
2019-05-22T06:20:09.920Z,11.22
2019-05-22T06:21:09.927Z,11.10
2019-05-22T06:22:09.910Z,11.11
2019-05-22T06:23:09.927Z,11.05
2019-05-22T06:24:09.924Z,11.07
2019-05-22T06:25:09.919Z,11.17
2019-05-22T06:26:09.997Z,11.17
2019-05-22T06:27:09.883Z,11.10
2019-05-22T06:28:09.881Z,11.14
2019-05-22T06:29:09.899Z,11.07
2019-05-22T06:30:10.103Z,11.12
2019-05-22T06:31:09.871Z,11.02
2019-05-22T06:32:09.855Z,11.10
2019-05-22T06:33:09.876Z,11.02
2019-05-22T06:34:09.850Z,11.10
2019-05-22T06:35:09.844Z,11.08
2019-05-22T06:36:09.853Z,11.00
2019-05-22T06:37:09.839Z,11.07
2019-05-22T06:38:09.835Z,10.99
2019-05-22T06:39:09.826Z,11.05
2019-05-22T06:40:09.833Z,11.08
2019-05-22T06:41:09.826Z,11.04
2019-05-22T06:42:09.815Z,11.11
2019-05-22T06:43:09.812Z,11.12
2019-05-22T06:44:10.030Z,11.15
2019-05-22T06:45:09.813Z,11.05
2019-05-22T06:46:09.795Z,10.96
2019-05-22T06:47:10.026Z,11.00
2019-05-22T06:48:09.993Z,11.10
2019-05-22T06:49:09.788Z,11.15
2019-05-22T06:50:10.029Z,11.08
2019-05-22T06:51:19.106Z,11.10
2019-05-22T06:52:09.800Z,11.15
2019-05-22T06:53:10.383Z,11.17
2019-05-22T06:54:09.763Z,11.18
2019-05-22T06:55:09.773Z,11.14
2019-05-22T06:56:09.753Z,11.17
2019-05-22T06:57:09.744Z,11.17
2019-05-22T06:58:09.755Z,11.17
2019-05-22T06:59:09.749Z,11.25
2019-05-22T07:00:14.100Z,11.27
2019-05-22T07:01:09.944Z,11.18
2019-05-22T07:02:09.748Z,11.08
2019-05-22T07:03:09.725Z,11.15
2019-05-22T07:04:09.960Z,11.18
2019-05-22T07:05:09.723Z,11.14
2019-05-22T07:06:09.718Z,11.14
2019-05-22T07:07:11.819Z,11.22
2019-05-22T07:08:09.711Z,11.14
2019-05-22T07:09:09.695Z,11.18
2019-05-22T07:10:09.906Z,11.17
2019-05-22T07:11:09.729Z,11.26
2019-05-22T07:12:09.696Z,11.22
2019-05-22T07:13:09.714Z,11.32
2019-05-22T07:14:09.677Z,11.15
2019-05-22T07:15:09.878Z,11.15
2019-05-22T07:16:09.665Z,11.07
2019-05-22T07:17:09.662Z,11.11
2019-05-22T07:18:12.552Z,11.17
2019-05-22T07:19:09.650Z,11.18
2019-05-22T07:20:09.648Z,11.15
2019-05-22T07:21:09.638Z,11.19
2019-05-22T07:22:09.643Z,11.26
2019-05-22T07:23:09.653Z,11.26
2019-05-22T07:24:09.646Z,11.26
2019-05-22T07:25:09.637Z,11.33
2019-05-22T07:26:09.627Z,11.33
2019-05-22T07:27:09.612Z,11.50
2019-05-22T07:28:09.823Z,11.47
2019-05-22T07:29:09.821Z,11.44
2019-05-22T07:30:09.823Z,11.44
2019-05-22T07:31:09.802Z,11.50
2019-05-22T07:32:09.797Z,11.50
2019-05-22T07:33:09.795Z,11.55
2019-05-22T07:34:09.588Z,11.51
2019-05-22T07:35:09.801Z,11.62
2019-05-22T07:36:13.604Z,11.62
2019-05-22T07:37:09.777Z,11.57
2019-05-22T07:38:09.783Z,11.57
2019-05-22T07:39:09.575Z,11.54
2019-05-22T07:40:09.561Z,11.62
2019-05-22T07:41:09.734Z,11.59
2019-05-22T07:42:09.575Z,11.70
2019-05-22T07:43:09.567Z,11.52
2019-05-22T07:44:09.567Z,11.63
2019-05-22T07:45:09.563Z,11.63
2019-05-22T07:46:09.541Z,11.69
2019-05-22T07:47:09.538Z,11.70
2019-05-22T07:48:10.053Z,11.68
2019-05-22T07:49:09.519Z,11.81
2019-05-22T07:50:09.528Z,11.73
2019-05-22T07:51:09.612Z,11.77
2019-05-22T07:52:09.512Z,11.78
2019-05-22T07:53:09.518Z,11.78
2019-05-22T07:54:09.508Z,11.73
2019-05-22T07:55:09.510Z,11.65
2019-05-22T07:56:09.498Z,11.68
2019-05-22T07:57:09.501Z,11.75
2019-05-22T07:58:09.688Z,11.77
2019-05-22T07:59:09.480Z,11.86
2019-05-22T08:00:09.491Z,11.83
2019-05-22T08:01:09.495Z,11.88
2019-05-22T08:02:09.487Z,11.90
2019-05-22T08:03:09.461Z,11.88
2019-05-22T08:04:09.464Z,11.90
2019-05-22T08:05:09.478Z,11.90
2019-05-22T08:06:09.462Z,11.88
2019-05-22T08:07:09.441Z,11.77
2019-05-22T08:08:09.475Z,11.81
2019-05-22T08:09:09.449Z,11.81
2019-05-22T08:10:09.678Z,11.83
2019-05-22T08:11:09.481Z,11.84
2019-05-22T08:12:09.452Z,11.84
2019-05-22T08:13:09.448Z,11.78
2019-05-22T08:14:09.430Z,11.77
2019-05-22T08:15:09.421Z,11.84
2019-05-22T08:16:09.411Z,11.81
2019-05-22T08:17:09.404Z,11.77
2019-05-22T08:18:09.411Z,11.88
2019-05-22T08:19:09.613Z,11.75
2019-05-22T08:20:09.400Z,11.90
2019-05-22T08:21:09.389Z,11.88
2019-05-22T08:22:09.376Z,11.87
2019-05-22T08:23:09.586Z,11.88
2019-05-22T08:24:09.385Z,11.87
2019-05-22T08:25:09.380Z,12.02
2019-05-22T08:26:09.371Z,12.00
2019-05-22T08:27:09.363Z,11.88
2019-05-22T08:28:09.358Z,11.84
2019-05-22T08:29:09.354Z,12.00
2019-05-22T08:30:09.554Z,11.95
2019-05-22T08:31:09.347Z,12.02
2019-05-22T08:32:09.335Z,12.02
2019-05-22T08:33:09.332Z,12.04
2019-05-22T08:34:09.351Z,12.13
2019-05-22T08:35:09.340Z,12.15
2019-05-22T08:36:09.376Z,12.20
2019-05-22T08:37:09.348Z,12.07
2019-05-22T08:38:09.340Z,12.10
2019-05-22T08:39:09.344Z,12.12
2019-05-22T08:40:09.315Z,12.24
2019-05-22T08:41:09.327Z,12.21
2019-05-22T08:42:09.292Z,12.22
2019-05-22T08:43:09.295Z,12.24
2019-05-22T08:44:16.712Z,12.29
2019-05-22T08:45:09.302Z,12.35
2019-05-22T08:46:09.298Z,12.37
2019-05-22T08:47:09.483Z,12.46
2019-05-22T08:48:09.288Z,12.49
2019-05-22T08:49:09.290Z,12.50
2019-05-22T08:50:09.261Z,12.67
2019-05-22T08:51:09.491Z,12.64
2019-05-22T08:52:22.442Z,12.62
2019-05-22T08:53:09.273Z,12.50
2019-05-22T08:54:09.249Z,12.61
2019-05-22T08:55:09.245Z,12.62
2019-05-22T08:56:09.249Z,12.64
2019-05-22T08:57:09.244Z,12.64
2019-05-22T08:58:09.238Z,12.65
2019-05-22T08:59:19.056Z,12.67
2019-05-22T09:00:12.360Z,12.65
2019-05-22T09:01:09.233Z,12.68
2019-05-22T09:02:09.258Z,12.65
2019-05-22T09:03:09.224Z,12.78
2019-05-22T09:04:09.217Z,12.73
2019-05-22T09:05:09.230Z,12.76
2019-05-22T09:06:09.201Z,12.79
2019-05-22T09:07:09.220Z,12.72
2019-05-22T09:08:09.194Z,12.82
2019-05-22T09:09:09.201Z,12.93
2019-05-22T09:10:09.198Z,12.97
2019-05-22T09:11:09.186Z,12.97
2019-05-22T09:12:09.175Z,12.98
2019-05-22T09:13:09.186Z,12.91
2019-05-22T09:14:09.177Z,12.94
2019-05-22T09:15:09.173Z,13.03
2019-05-22T09:16:09.175Z,13.00
2019-05-22T09:17:09.169Z,13.00
2019-05-22T09:18:09.162Z,12.98
2019-05-22T09:19:09.147Z,12.94
2019-05-22T09:20:09.145Z,13.00
2019-05-22T09:21:09.153Z,13.11
2019-05-22T09:22:09.147Z,13.08
2019-05-22T09:23:09.140Z,13.08
2019-05-22T09:24:09.142Z,13.18
2019-05-22T09:25:09.149Z,13.16
2019-05-22T09:26:09.123Z,13.15
2019-05-22T09:27:09.121Z,13.08
2019-05-22T09:28:09.147Z,12.97
2019-05-22T09:29:09.315Z,13.13
2019-05-22T09:30:09.112Z,13.18
2019-05-22T09:31:09.308Z,13.16
2019-05-22T09:32:09.340Z,13.22
2019-05-22T09:33:09.306Z,13.20
2019-05-22T09:34:09.100Z,13.08
2019-05-22T09:35:09.104Z,13.19
2019-05-22T09:36:09.288Z,13.09
2019-05-22T09:37:09.298Z,13.13
2019-05-22T09:38:09.087Z,13.19
2019-05-22T09:39:09.296Z,13.18
2019-05-22T09:40:09.068Z,13.18
2019-05-22T09:41:09.107Z,13.18
2019-05-22T09:42:09.073Z,13.18
2019-05-22T09:43:09.058Z,13.33
2019-05-22T09:44:09.071Z,13.25
2019-05-22T09:45:09.281Z,13.22
2019-05-22T09:46:09.050Z,13.23
2019-05-22T09:47:09.039Z,13.35
2019-05-22T09:48:09.047Z,13.46
2019-05-22T09:49:09.039Z,13.46
2019-05-22T09:50:09.034Z,13.42
2019-05-22T09:51:09.029Z,13.52
2019-05-22T09:52:09.040Z,13.46
2019-05-22T09:53:09.043Z,13.50
2019-05-22T09:54:09.039Z,13.50
2019-05-22T09:55:09.028Z,13.44
2019-05-22T09:56:09.023Z,13.49
2019-05-22T09:57:09.032Z,13.50
2019-05-22T09:58:09.016Z,13.50
2019-05-22T09:59:08.999Z,13.39
2019-05-22T10:00:09.204Z,13.44
2019-05-22T10:01:11.645Z,13.49
2019-05-22T10:02:08.991Z,13.49
2019-05-22T10:03:08.984Z,13.33
2019-05-22T10:04:09.182Z,13.39
2019-05-22T10:05:09.233Z,13.30
2019-05-22T10:06:09.177Z,13.47
2019-05-22T10:07:08.970Z,13.49
2019-05-22T10:08:08.973Z,13.54
2019-05-22T10:09:09.169Z,13.56
2019-05-22T10:10:08.986Z,13.62
2019-05-22T10:11:08.971Z,13.60
2019-05-22T10:12:08.964Z,13.78
2019-05-22T10:13:08.963Z,13.90
2019-05-22T10:14:08.962Z,13.92
2019-05-22T10:15:09.136Z,13.93
2019-05-22T10:16:09.140Z,13.96
2019-05-22T10:17:08.931Z,14.07
2019-05-22T10:18:08.949Z,13.95
2019-05-22T10:19:09.143Z,13.96
2019-05-22T10:20:08.955Z,14.12
2019-05-22T10:21:08.920Z,14.14
2019-05-22T10:22:08.921Z,14.12
2019-05-22T10:23:15.387Z,14.17
2019-05-22T10:24:08.904Z,14.18
2019-05-22T10:25:15.421Z,14.17
2019-05-22T10:26:09.104Z,14.04
2019-05-22T10:27:08.909Z,13.99
2019-05-22T10:28:08.896Z,14.00
2019-05-22T10:29:08.890Z,13.97
2019-05-22T10:30:08.902Z,13.92
2019-05-22T10:31:09.888Z,13.90
2019-05-22T10:32:09.093Z,13.92
2019-05-22T10:33:08.881Z,13.97
2019-05-22T10:34:08.878Z,14.03
2019-05-22T10:35:08.874Z,14.03
2019-05-22T10:36:08.880Z,14.10
2019-05-22T10:37:08.878Z,14.15
2019-05-22T10:38:08.871Z,14.11
2019-05-22T10:39:08.878Z,14.18
2019-05-22T10:40:08.862Z,14.12
2019-05-22T10:41:08.846Z,14.12
2019-05-22T10:42:08.853Z,14.10
2019-05-22T10:43:08.863Z,14.12
2019-05-22T10:44:08.843Z,14.08
2019-05-22T10:45:08.852Z,14.14
2019-05-22T10:46:08.854Z,14.05
2019-05-22T10:47:08.849Z,14.12
2019-05-22T10:48:08.826Z,14.11
2019-05-22T10:49:08.836Z,14.08
2019-05-22T10:50:08.838Z,14.12
2019-05-22T10:51:08.814Z,14.18
2019-05-22T10:52:08.811Z,14.17
2019-05-22T10:53:08.834Z,14.12
2019-05-22T10:54:08.815Z,13.96
2019-05-22T10:55:08.816Z,13.92
2019-05-22T10:56:08.964Z,13.95
2019-05-22T10:57:08.806Z,13.92
2019-05-22T10:58:08.854Z,13.99
2019-05-22T10:59:08.799Z,14.10
2019-05-22T11:00:08.804Z,13.99
2019-05-22T11:01:08.795Z,14.11
2019-05-22T11:02:08.802Z,14.11
2019-05-22T11:03:08.795Z,14.08
2019-05-22T11:04:08.779Z,14.17
2019-05-22T11:05:08.777Z,14.22
2019-05-22T11:06:08.833Z,14.23
2019-05-22T11:07:08.763Z,14.28
2019-05-22T11:08:08.778Z,14.32
2019-05-22T11:09:08.787Z,14.37
2019-05-22T11:10:08.816Z,14.28
2019-05-22T11:11:08.759Z,14.20
2019-05-22T11:12:08.763Z,14.20
2019-05-22T11:13:08.771Z,14.18
2019-05-22T11:14:09.583Z,14.32
2019-05-22T11:15:08.748Z,14.35
2019-05-22T11:16:08.759Z,14.50
2019-05-22T11:17:08.748Z,14.41
2019-05-22T11:18:08.738Z,14.40
2019-05-22T11:19:08.757Z,14.45
2019-05-22T11:20:08.733Z,14.32
2019-05-22T11:21:08.748Z,14.33
2019-05-22T11:22:08.747Z,14.36
2019-05-22T11:23:08.729Z,14.22
2019-05-22T11:24:08.717Z,14.25
2019-05-22T11:25:08.714Z,14.18
2019-05-22T11:26:08.714Z,14.28
2019-05-22T11:27:08.717Z,14.32
2019-05-22T11:28:08.908Z,14.47
2019-05-22T11:29:08.718Z,14.54
2019-05-22T11:30:08.711Z,14.72
2019-05-22T11:31:08.698Z,14.69
2019-05-22T11:32:08.705Z,14.73
2019-05-22T11:33:08.696Z,14.72
2019-05-22T11:34:08.713Z,14.77
2019-05-22T11:35:08.707Z,14.69
2019-05-22T11:36:08.676Z,14.73
2019-05-22T11:37:08.682Z,14.69
2019-05-22T11:38:08.684Z,14.78
2019-05-22T11:39:08.673Z,14.78
2019-05-22T11:40:08.684Z,14.91
2019-05-22T11:41:08.667Z,14.79
2019-05-22T11:42:08.659Z,14.79
2019-05-22T11:43:08.689Z,14.81
2019-05-22T11:44:08.863Z,14.78
2019-05-22T11:45:08.659Z,14.79
2019-05-22T11:46:08.667Z,14.78
2019-05-22T11:47:08.863Z,14.78
2019-05-22T11:48:08.641Z,14.88
2019-05-22T11:49:08.651Z,14.94
2019-05-22T11:50:08.654Z,14.96
2019-05-22T11:51:08.655Z,14.97
2019-05-22T11:52:08.638Z,14.96
2019-05-22T11:53:08.835Z,14.84
2019-05-22T11:54:09.909Z,14.85
2019-05-22T11:55:08.641Z,14.89
2019-05-22T11:56:08.623Z,14.79
2019-05-22T11:57:08.637Z,14.97
2019-05-22T11:58:08.623Z,15.06
2019-05-22T11:59:08.627Z,15.18
2019-05-22T12:00:09.404Z,15.27
2019-05-22T12:01:08.637Z,15.37
2019-05-22T12:02:08.605Z,15.42
2019-05-22T12:03:08.603Z,15.51
2019-05-22T12:04:08.600Z,15.46
2019-05-22T12:05:08.594Z,15.47
2019-05-22T12:06:08.595Z,15.44
2019-05-22T12:07:08.610Z,15.55
2019-05-22T12:08:08.586Z,15.62
2019-05-22T12:09:08.595Z,15.62
2019-05-22T12:10:08.610Z,15.76
2019-05-22T12:11:08.597Z,15.73
2019-05-22T12:12:08.586Z,15.75
2019-05-22T12:13:08.581Z,15.65
2019-05-22T12:14:08.607Z,15.68
2019-05-22T12:15:08.591Z,15.65
2019-05-22T12:16:08.571Z,15.65
2019-05-22T12:17:08.574Z,15.65
2019-05-22T12:18:08.573Z,15.70
2019-05-22T12:19:08.569Z,15.75
2019-05-22T12:20:08.555Z,15.79
2019-05-22T12:21:08.768Z,15.76
2019-05-22T12:22:08.551Z,15.90
2019-05-22T12:23:08.549Z,15.68
2019-05-22T12:24:08.552Z,15.83
2019-05-22T12:25:08.539Z,15.92
2019-05-22T12:26:08.539Z,16.10
2019-05-22T12:27:08.563Z,16.16
2019-05-22T12:28:08.532Z,16.13
2019-05-22T12:29:08.538Z,15.98
2019-05-22T12:30:08.529Z,16.09
2019-05-22T12:31:08.546Z,16.01
2019-05-22T12:32:08.526Z,15.90
2019-05-22T12:33:13.268Z,15.97
2019-05-22T12:34:08.520Z,15.80
2019-05-22T12:35:08.524Z,15.82
2019-05-22T12:36:08.521Z,15.65
2019-05-22T12:37:08.510Z,15.72
2019-05-22T12:38:08.504Z,15.64
2019-05-22T12:39:08.506Z,15.62
2019-05-22T12:40:08.508Z,15.67
2019-05-22T12:41:08.517Z,15.72
2019-05-22T12:42:08.518Z,15.58
2019-05-22T12:43:08.509Z,15.68
2019-05-22T12:44:08.514Z,15.65
2019-05-22T12:45:08.512Z,15.67
2019-05-22T12:46:08.502Z,15.65
2019-05-22T12:47:08.493Z,15.68
2019-05-22T12:48:08.490Z,15.64
2019-05-22T12:49:09.140Z,15.67
2019-05-22T12:50:08.496Z,15.65
2019-05-22T12:51:08.492Z,15.68
2019-05-22T12:52:08.483Z,15.65
2019-05-22T12:53:08.482Z,15.62
2019-05-22T12:54:08.487Z,15.65